createdAt,value
2022-11-16T00:00:36.861Z,337.00
2022-11-16T00:01:36.922Z,344.00
2022-11-16T00:02:36.915Z,348.00
2022-11-16T00:03:36.787Z,363.00
2022-11-16T00:04:36.797Z,359.00
2022-11-16T00:05:36.776Z,358.00
2022-11-16T00:06:36.762Z,354.00
2022-11-16T00:07:36.842Z,355.00
2022-11-16T00:08:36.877Z,343.00
2022-11-16T00:09:36.739Z,342.00
2022-11-16T00:10:36.707Z,344.00
2022-11-16T00:11:36.692Z,341.00
2022-11-16T00:12:36.757Z,340.00
2022-11-16T00:13:36.661Z,337.00
2022-11-16T00:15:47.802Z,402.00
2022-11-16T00:16:48.806Z,356.00
2022-11-16T00:17:48.789Z,352.00
2022-11-16T00:18:48.781Z,359.00
2022-11-16T00:19:48.774Z,364.00
2022-11-16T00:20:48.777Z,361.00
2022-11-16T00:21:48.746Z,354.00
2022-11-16T00:22:48.738Z,353.00
2022-11-16T00:23:48.692Z,370.00
2022-11-16T00:24:48.715Z,353.00
2022-11-16T00:25:48.712Z,357.00
2022-11-16T00:26:49.704Z,355.00
2022-11-16T00:27:48.655Z,348.00
2022-11-16T00:28:48.640Z,337.00
2022-11-16T00:29:48.627Z,333.00
2022-11-16T00:30:48.629Z,334.00
2022-11-16T00:31:48.626Z,328.00
2022-11-16T00:32:48.605Z,327.00
2022-11-16T00:33:48.594Z,325.00
2022-11-16T00:34:48.581Z,323.00
2022-11-16T00:35:48.540Z,329.00
2022-11-16T00:36:48.540Z,327.00
2022-11-16T00:37:48.516Z,326.00
2022-11-16T00:38:48.526Z,313.00
2022-11-16T00:39:48.526Z,314.00
2022-11-16T00:40:48.499Z,314.00
2022-11-16T00:41:48.485Z,310.00
2022-11-16T00:42:48.457Z,320.00
2022-11-16T00:43:48.444Z,347.00
2022-11-16T00:44:48.425Z,353.00
2022-11-16T00:45:48.415Z,358.00
2022-11-16T00:46:48.403Z,356.00
2022-11-16T00:47:48.413Z,360.00
2022-11-16T00:48:48.368Z,355.00
2022-11-16T00:49:48.398Z,360.00
2022-11-16T00:50:48.366Z,351.00
2022-11-16T00:51:48.357Z,354.00
2022-11-16T00:52:48.349Z,355.00
2022-11-16T00:53:48.320Z,356.00
2022-11-16T00:54:48.305Z,354.00
2022-11-16T00:55:48.339Z,350.00
2022-11-16T00:56:48.282Z,350.00
2022-11-16T00:57:48.259Z,345.00
2022-11-16T00:58:48.290Z,340.00
2022-11-16T00:59:48.274Z,332.00
2022-11-16T01:00:48.227Z,324.00
2022-11-16T01:01:48.260Z,326.00
2022-11-16T01:02:48.214Z,334.00
2022-11-16T01:03:48.198Z,352.00
2022-11-16T01:04:48.179Z,342.00
2022-11-16T01:05:48.175Z,338.00
2022-11-16T01:06:48.172Z,343.00
2022-11-16T01:07:48.146Z,349.00
2022-11-16T01:08:48.110Z,344.00
2022-11-16T01:09:48.143Z,345.00
2022-11-16T01:10:48.119Z,354.00
2022-11-16T01:11:48.099Z,353.00
2022-11-16T01:12:48.082Z,345.00
2022-11-16T01:13:48.067Z,348.00
2022-11-16T01:14:48.050Z,352.00
2022-11-16T01:15:48.056Z,354.00
2022-11-16T01:16:48.004Z,348.00
2022-11-16T01:17:48.028Z,356.00
2022-11-16T01:18:47.977Z,368.00
2022-11-16T01:19:47.970Z,367.00
2022-11-16T01:20:47.951Z,360.00
2022-11-16T01:21:47.961Z,365.00
2022-11-16T01:22:47.961Z,359.00
2022-11-16T01:23:47.950Z,356.00
2022-11-16T01:24:47.924Z,359.00
2022-11-16T01:25:47.906Z,360.00
2022-11-16T01:26:47.907Z,358.00
2022-11-16T01:27:47.882Z,358.00
2022-11-16T01:28:47.857Z,359.00
2022-11-16T01:29:47.855Z,360.00
2022-11-16T01:30:47.880Z,362.00
2022-11-16T01:31:47.826Z,347.00
2022-11-16T01:32:47.819Z,323.00
2022-11-16T01:33:47.812Z,304.00
2022-11-16T01:34:47.796Z,307.00
2022-11-16T01:35:47.813Z,320.00
2022-11-16T01:36:47.751Z,314.00
2022-11-16T01:37:47.757Z,323.00
2022-11-16T01:38:47.737Z,328.00
2022-11-16T01:39:47.774Z,334.00
2022-11-16T01:40:47.730Z,337.00
2022-11-16T01:41:47.741Z,340.00
2022-11-16T01:42:47.686Z,346.00
2022-11-16T01:43:47.700Z,344.00
2022-11-16T01:44:47.675Z,346.00
2022-11-16T01:45:47.680Z,335.00
2022-11-16T01:46:47.639Z,333.00
2022-11-16T01:47:47.620Z,330.00
2022-11-16T01:48:47.681Z,334.00
2022-11-16T01:49:47.647Z,326.00
2022-11-16T01:50:47.597Z,326.00
2022-11-16T01:51:47.573Z,328.00
2022-11-16T01:52:47.571Z,312.00
2022-11-16T01:53:47.549Z,317.00
2022-11-16T01:54:47.541Z,314.00
2022-11-16T01:55:47.561Z,307.00
2022-11-16T01:56:47.509Z,304.00
2022-11-16T01:57:47.506Z,298.00
2022-11-16T01:58:47.472Z,291.00
2022-11-16T01:59:47.471Z,296.00
2022-11-16T02:00:47.472Z,289.00
2022-11-16T02:01:47.429Z,290.00
2022-11-16T02:02:47.435Z,285.00
2022-11-16T02:03:47.422Z,287.00
2022-11-16T02:04:47.380Z,314.00
2022-11-16T02:05:47.389Z,311.00
2022-11-16T02:06:47.454Z,309.00
2022-11-16T02:07:47.395Z,306.00
2022-11-16T02:08:47.363Z,304.00
2022-11-16T02:09:47.344Z,294.00
2022-11-16T02:10:47.321Z,298.00
2022-11-16T02:11:47.320Z,300.00
2022-11-16T02:12:47.294Z,300.00
2022-11-16T02:13:47.309Z,296.00
2022-11-16T02:14:47.271Z,294.00
2022-11-16T02:15:47.278Z,297.00
2022-11-16T02:16:47.220Z,301.00
2022-11-16T02:17:47.229Z,306.00
2022-11-16T02:18:47.254Z,306.00
2022-11-16T02:19:47.236Z,308.00
2022-11-16T02:20:47.200Z,312.00
2022-11-16T02:21:47.161Z,324.00
2022-11-16T02:22:47.162Z,317.00
2022-11-16T02:23:47.156Z,305.00
2022-11-16T02:24:47.124Z,296.00
2022-11-16T02:25:47.144Z,294.00
2022-11-16T02:26:47.152Z,293.00
2022-11-16T02:27:47.091Z,290.00
2022-11-16T02:28:47.073Z,284.00
2022-11-16T02:29:47.081Z,302.00
2022-11-16T02:30:47.040Z,303.00
2022-11-16T02:31:47.028Z,299.00
2022-11-16T02:32:47.033Z,299.00
2022-11-16T02:33:47.030Z,294.00
2022-11-16T02:34:47.028Z,307.00
2022-11-16T02:35:47.019Z,302.00
2022-11-16T02:36:46.984Z,305.00
2022-11-16T02:37:47.024Z,310.00
2022-11-16T02:38:46.978Z,310.00
2022-11-16T02:39:46.951Z,292.00
2022-11-16T02:40:46.920Z,290.00
2022-11-16T02:41:46.928Z,294.00
2022-11-16T02:42:46.887Z,302.00
2022-11-16T02:43:46.891Z,308.00
2022-11-16T02:44:46.891Z,308.00
2022-11-16T02:45:46.839Z,295.00
2022-11-16T02:46:46.860Z,292.00
2022-11-16T02:47:46.833Z,316.00
2022-11-16T02:48:46.813Z,323.00
2022-11-16T02:49:46.815Z,329.00
2022-11-16T02:50:46.794Z,325.00
2022-11-16T02:51:46.781Z,322.00
2022-11-16T02:52:46.800Z,304.00
2022-11-16T02:53:46.758Z,296.00
2022-11-16T02:54:46.747Z,298.00
2022-11-16T02:55:46.715Z,294.00
2022-11-16T02:56:46.761Z,296.00
2022-11-16T02:57:46.717Z,290.00
2022-11-16T02:58:46.727Z,289.00
2022-11-16T02:59:46.674Z,299.00
2022-11-16T03:00:46.733Z,295.00
2022-11-16T03:01:46.637Z,295.00
2022-11-16T03:02:46.631Z,301.00
2022-11-16T03:03:46.641Z,308.00
2022-11-16T03:04:46.612Z,300.00
2022-11-16T03:05:46.596Z,311.00
2022-11-16T03:06:46.791Z,297.00
2022-11-16T03:07:46.596Z,298.00
2022-11-16T03:08:46.575Z,292.00
2022-11-16T03:09:46.573Z,301.00
2022-11-16T03:10:46.551Z,300.00
2022-11-16T03:11:46.504Z,289.00
2022-11-16T03:12:46.514Z,287.00
2022-11-16T03:13:46.496Z,290.00
2022-11-16T03:14:46.492Z,291.00
2022-11-16T03:15:46.451Z,304.00
2022-11-16T03:16:46.468Z,311.00
2022-11-16T03:17:46.429Z,309.00
2022-11-16T03:18:46.445Z,305.00
2022-11-16T03:19:46.393Z,291.00
2022-11-16T03:20:46.408Z,301.00
2022-11-16T03:21:46.381Z,298.00
2022-11-16T03:22:46.384Z,291.00
2022-11-16T03:23:46.358Z,296.00
2022-11-16T03:24:46.348Z,295.00
2022-11-16T03:25:46.321Z,299.00
2022-11-16T03:26:46.311Z,306.00
2022-11-16T03:27:46.336Z,314.00
2022-11-16T03:28:46.287Z,317.00
2022-11-16T03:29:46.275Z,327.00
2022-11-16T03:30:46.260Z,333.00
2022-11-16T03:31:46.252Z,341.00
2022-11-16T03:32:46.270Z,340.00
2022-11-16T03:33:46.219Z,343.00
2022-11-16T03:34:46.226Z,332.00
2022-11-16T03:35:46.210Z,333.00
2022-11-16T03:36:46.202Z,321.00
2022-11-16T03:37:46.180Z,295.00
2022-11-16T03:38:46.171Z,307.00
2022-11-16T03:39:46.154Z,301.00
2022-11-16T03:40:46.155Z,297.00
2022-11-16T03:41:46.116Z,312.00
2022-11-16T03:42:46.116Z,313.00
2022-11-16T03:43:46.117Z,324.00
2022-11-16T03:44:46.090Z,331.00
2022-11-16T03:45:46.080Z,335.00
2022-11-16T03:46:46.043Z,338.00
2022-11-16T03:47:46.462Z,335.00
2022-11-16T03:48:46.701Z,325.00
2022-11-16T03:49:46.251Z,322.00
2022-11-16T03:50:46.507Z,321.00
2022-11-16T03:51:46.396Z,326.00
2022-11-16T03:52:45.992Z,316.00
2022-11-16T03:53:46.211Z,309.00
2022-11-16T03:54:46.115Z,326.00
2022-11-16T03:55:49.764Z,321.00
2022-11-16T03:56:45.932Z,331.00
2022-11-16T03:57:45.922Z,333.00
2022-11-16T03:58:45.945Z,336.00
2022-11-16T03:59:45.904Z,340.00
2022-11-16T04:00:45.976Z,350.00
2022-11-16T04:01:45.859Z,348.00
2022-11-16T04:02:45.845Z,334.00
2022-11-16T04:03:45.822Z,339.00
2022-11-16T04:04:45.836Z,328.00
2022-11-16T04:05:45.808Z,321.00
2022-11-16T04:06:45.826Z,316.00
2022-11-16T04:07:45.790Z,329.00
2022-11-16T04:08:45.786Z,329.00
2022-11-16T04:09:45.792Z,325.00
2022-11-16T04:10:45.739Z,306.00
2022-11-16T04:11:45.745Z,309.00
2022-11-16T04:12:45.730Z,314.00
2022-11-16T04:13:45.704Z,314.00
2022-11-16T04:14:45.703Z,316.00
2022-11-16T04:15:45.676Z,317.00
2022-11-16T04:16:45.659Z,316.00
2022-11-16T04:17:45.660Z,308.00
2022-11-16T04:18:45.625Z,311.00
2022-11-16T04:19:45.623Z,320.00
2022-11-16T04:20:45.623Z,320.00
2022-11-16T04:21:45.632Z,347.00
2022-11-16T04:22:45.593Z,352.00
2022-11-16T04:23:45.575Z,356.00
2022-11-16T04:24:45.583Z,358.00
2022-11-16T04:25:45.549Z,361.00
2022-11-16T04:26:45.565Z,360.00
2022-11-16T04:27:45.515Z,350.00
2022-11-16T04:28:45.565Z,360.00
2022-11-16T04:29:45.524Z,360.00
2022-11-16T04:30:45.486Z,356.00
2022-11-16T04:31:45.465Z,359.00
2022-11-16T04:32:45.495Z,362.00
2022-11-16T04:33:45.464Z,368.00
2022-11-16T04:34:45.442Z,362.00
2022-11-16T04:35:45.428Z,364.00
2022-11-16T04:36:45.391Z,364.00
2022-11-16T04:37:45.410Z,352.00
2022-11-16T04:38:45.420Z,349.00
2022-11-16T04:39:45.369Z,351.00
2022-11-16T04:40:45.375Z,349.00
2022-11-16T04:41:45.364Z,361.00
2022-11-16T04:42:45.367Z,354.00
2022-11-16T04:43:45.313Z,355.00
2022-11-16T04:44:45.304Z,350.00
2022-11-16T04:45:45.275Z,337.00
2022-11-16T04:46:45.282Z,334.00
2022-11-16T04:47:45.247Z,334.00
2022-11-16T04:48:45.237Z,337.00
2022-11-16T04:49:45.316Z,339.00
2022-11-16T04:50:45.220Z,350.00
2022-11-16T04:51:45.240Z,358.00
2022-11-16T04:52:45.219Z,352.00
2022-11-16T04:53:45.189Z,355.00
2022-11-16T04:54:45.176Z,356.00
2022-11-16T04:55:45.167Z,359.00
2022-11-16T04:56:45.146Z,358.00
2022-11-16T04:57:45.145Z,353.00
2022-11-16T04:58:45.120Z,357.00
2022-11-16T04:59:45.116Z,363.00
2022-11-16T05:00:45.092Z,360.00
2022-11-16T05:01:45.124Z,354.00
2022-11-16T05:02:45.070Z,354.00
2022-11-16T05:03:45.054Z,356.00
2022-11-16T05:04:45.071Z,360.00
2022-11-16T05:05:45.021Z,358.00
2022-11-16T05:06:45.007Z,354.00
2022-11-16T05:07:44.983Z,379.00
2022-11-16T05:08:45.031Z,357.00
2022-11-16T05:09:44.956Z,353.00
2022-11-16T05:10:44.968Z,351.00
2022-11-16T05:11:44.938Z,356.00
2022-11-16T05:12:44.959Z,354.00
2022-11-16T05:13:44.900Z,353.00
2022-11-16T05:14:44.902Z,350.00
2022-11-16T05:15:44.876Z,353.00
2022-11-16T05:16:44.887Z,354.00
2022-11-16T05:17:44.852Z,353.00
2022-11-16T05:18:44.877Z,358.00
2022-11-16T05:19:44.821Z,359.00
2022-11-16T05:20:44.825Z,360.00
2022-11-16T05:21:44.827Z,348.00
2022-11-16T05:22:44.796Z,351.00
2022-11-16T05:23:44.773Z,355.00
2022-11-16T05:24:44.793Z,351.00
2022-11-16T05:25:44.779Z,353.00
2022-11-16T05:26:44.741Z,339.00
2022-11-16T05:27:44.747Z,351.00
2022-11-16T05:28:44.742Z,347.00
2022-11-16T05:29:44.740Z,348.00
2022-11-16T05:30:44.714Z,355.00
2022-11-16T05:31:44.696Z,366.00
2022-11-16T05:32:44.688Z,363.00
2022-11-16T05:33:44.670Z,355.00
2022-11-16T05:34:44.706Z,353.00
2022-11-16T05:35:44.663Z,353.00
2022-11-16T05:36:44.625Z,355.00
2022-11-16T05:37:44.648Z,354.00
2022-11-16T05:38:44.627Z,356.00
2022-11-16T05:39:44.593Z,351.00
2022-11-16T05:40:44.628Z,353.00
2022-11-16T05:41:44.588Z,353.00
2022-11-16T05:42:44.576Z,357.00
2022-11-16T05:43:44.562Z,347.00
2022-11-16T05:44:44.534Z,351.00
2022-11-16T05:45:44.500Z,346.00
2022-11-16T05:46:44.497Z,342.00
2022-11-16T05:47:44.503Z,343.00
2022-11-16T05:48:44.529Z,352.00
2022-11-16T05:49:44.446Z,357.00
2022-11-16T05:50:44.471Z,340.00
2022-11-16T05:51:44.426Z,310.00
2022-11-16T05:52:44.429Z,320.00
2022-11-16T05:53:44.429Z,341.00
2022-11-16T05:54:44.415Z,345.00
2022-11-16T05:55:44.445Z,350.00
2022-11-16T05:56:44.358Z,355.00
2022-11-16T05:57:44.388Z,358.00
2022-11-16T05:58:44.330Z,360.00
2022-11-16T05:59:44.338Z,353.00
2022-11-16T06:00:44.329Z,356.00
2022-11-16T06:01:44.367Z,363.00
2022-11-16T06:02:44.350Z,354.00
2022-11-16T06:03:44.263Z,360.00
2022-11-16T06:04:44.249Z,359.00
2022-11-16T06:05:44.273Z,359.00
2022-11-16T06:06:44.250Z,355.00
2022-11-16T06:07:44.260Z,356.00
2022-11-16T06:08:44.226Z,348.00
2022-11-16T06:09:44.199Z,349.00
2022-11-16T06:10:44.241Z,352.00
2022-11-16T06:11:44.191Z,358.00
2022-11-16T06:12:44.174Z,358.00
2022-11-16T06:13:44.153Z,360.00
2022-11-16T06:14:44.143Z,361.00
2022-11-16T06:15:57.028Z,359.00
2022-11-16T06:16:44.165Z,354.00
2022-11-16T06:17:44.106Z,316.00
2022-11-16T06:18:44.097Z,307.00
2022-11-16T06:19:44.108Z,305.00
2022-11-16T06:20:44.094Z,314.00
2022-11-16T06:21:44.082Z,353.00
2022-11-16T06:22:44.032Z,364.00
2022-11-16T06:23:44.002Z,360.00
2022-11-16T06:24:44.032Z,359.00
2022-11-16T06:25:43.964Z,356.00
2022-11-16T06:26:43.982Z,354.00
2022-11-16T06:27:43.951Z,350.00
2022-11-16T06:28:43.959Z,351.00
2022-11-16T06:29:43.952Z,351.00
2022-11-16T06:30:43.931Z,354.00
2022-11-16T06:31:43.908Z,363.00
2022-11-16T06:32:43.910Z,362.00
2022-11-16T06:33:43.861Z,364.00
2022-11-16T06:34:43.874Z,366.00
2022-11-16T06:35:43.847Z,358.00
2022-11-16T06:36:43.832Z,360.00
2022-11-16T06:37:43.848Z,361.00
2022-11-16T06:38:43.820Z,344.00
2022-11-16T06:39:43.791Z,342.00
2022-11-16T06:40:43.787Z,345.00
2022-11-16T06:41:43.789Z,352.00
2022-11-16T06:42:43.810Z,349.00
2022-11-16T06:43:43.757Z,356.00
2022-11-16T06:44:43.754Z,353.00
2022-11-16T06:45:43.739Z,347.00
2022-11-16T06:46:43.723Z,355.00
2022-11-16T06:47:43.719Z,360.00
2022-11-16T06:48:43.740Z,353.00
2022-11-16T06:49:43.669Z,354.00
2022-11-16T06:50:43.747Z,358.00
2022-11-16T06:51:43.650Z,350.00
2022-11-16T06:52:43.693Z,358.00
2022-11-16T06:53:43.689Z,360.00
2022-11-16T06:54:43.624Z,357.00
2022-11-16T06:55:43.607Z,353.00
2022-11-16T06:56:43.606Z,353.00
2022-11-16T06:57:43.586Z,354.00
2022-11-16T06:58:43.570Z,360.00
2022-11-16T06:59:43.537Z,362.00
2022-11-16T07:00:43.542Z,365.00
2022-11-16T07:01:43.624Z,358.00
2022-11-16T07:02:43.513Z,363.00
2022-11-16T07:03:43.478Z,350.00
2022-11-16T07:04:43.487Z,355.00
2022-11-16T07:05:43.487Z,351.00
2022-11-16T07:06:43.509Z,348.00
2022-11-16T07:07:43.466Z,354.00
2022-11-16T07:08:43.472Z,357.00
2022-11-16T07:09:43.455Z,353.00
2022-11-16T07:10:43.413Z,357.00
2022-11-16T07:11:43.445Z,359.00
2022-11-16T07:12:43.374Z,353.00
2022-11-16T07:13:43.372Z,352.00
2022-11-16T07:14:43.331Z,354.00
2022-11-16T07:15:43.343Z,360.00
2022-11-16T07:16:43.300Z,357.00
2022-11-16T07:17:43.332Z,355.00
2022-11-16T07:18:43.309Z,354.00
2022-11-16T07:19:43.285Z,354.00
2022-11-16T07:20:43.270Z,353.00
2022-11-16T07:21:43.317Z,358.00
2022-11-16T07:22:43.250Z,353.00
2022-11-16T07:23:43.235Z,354.00
2022-11-16T07:24:43.230Z,357.00
2022-11-16T07:25:43.238Z,355.00
2022-11-16T07:26:43.211Z,357.00
2022-11-16T07:27:43.235Z,372.00
2022-11-16T07:28:47.987Z,368.00
2022-11-16T07:29:43.176Z,368.00
2022-11-16T07:30:43.168Z,365.00
2022-11-16T07:31:43.138Z,360.00
2022-11-16T07:32:43.137Z,365.00
2022-11-16T07:33:43.142Z,362.00
2022-11-16T07:34:43.078Z,357.00
2022-11-16T07:35:43.063Z,360.00
2022-11-16T07:36:43.111Z,362.00
2022-11-16T07:37:43.057Z,365.00
2022-11-16T07:38:43.047Z,365.00
2022-11-16T07:39:43.011Z,366.00
2022-11-16T07:40:43.010Z,366.00
2022-11-16T07:41:43.020Z,362.00
2022-11-16T07:42:43.002Z,363.00
2022-11-16T07:43:44.377Z,361.00
2022-11-16T07:44:42.980Z,356.00
2022-11-16T07:45:42.947Z,356.00
2022-11-16T07:46:47.949Z,343.00
2022-11-16T07:47:42.932Z,341.00
2022-11-16T07:48:42.902Z,343.00
2022-11-16T07:49:42.914Z,334.00
2022-11-16T07:50:42.883Z,333.00
2022-11-16T07:51:42.911Z,330.00
2022-11-16T07:52:42.839Z,333.00
2022-11-16T07:53:42.858Z,325.00
2022-11-16T07:54:42.828Z,332.00
2022-11-16T07:55:42.817Z,334.00
2022-11-16T07:56:42.805Z,330.00
2022-11-16T07:57:42.799Z,338.00
2022-11-16T07:58:42.773Z,355.00
2022-11-16T07:59:42.767Z,349.00
2022-11-16T08:00:42.755Z,350.00
2022-11-16T08:01:42.783Z,353.00
2022-11-16T08:02:42.735Z,349.00
2022-11-16T08:03:42.709Z,354.00
2022-11-16T08:04:42.759Z,352.00
2022-11-16T08:05:42.689Z,349.00
2022-11-16T08:06:42.664Z,345.00
2022-11-16T08:07:42.698Z,349.00
2022-11-16T08:08:42.635Z,357.00
2022-11-16T08:09:42.655Z,353.00
2022-11-16T08:10:42.608Z,353.00
2022-11-16T08:11:42.608Z,351.00
2022-11-16T08:12:42.597Z,355.00
2022-11-16T08:13:42.603Z,351.00
2022-11-16T08:14:42.579Z,344.00
2022-11-16T08:15:42.555Z,368.00
2022-11-16T08:16:42.734Z,364.00
2022-11-16T08:17:42.518Z,380.00
2022-11-16T08:18:42.547Z,358.00
2022-11-16T08:19:42.514Z,365.00
2022-11-16T08:20:42.525Z,371.00
2022-11-16T08:21:42.486Z,364.00
2022-11-16T08:22:42.458Z,365.00
2022-11-16T08:23:42.441Z,357.00
2022-11-16T08:24:42.440Z,358.00
2022-11-16T08:25:42.412Z,363.00
2022-11-16T08:26:42.422Z,348.00
2022-11-16T08:27:42.407Z,357.00
2022-11-16T08:28:42.400Z,360.00
2022-11-16T08:29:42.391Z,360.00
2022-11-16T08:30:42.369Z,360.00
2022-11-16T08:31:42.345Z,367.00
2022-11-16T08:32:42.355Z,372.00
2022-11-16T08:33:42.393Z,360.00
2022-11-16T08:34:42.415Z,316.00
2022-11-16T08:35:42.307Z,295.00
2022-11-16T08:36:42.281Z,304.00
2022-11-16T08:37:42.274Z,309.00
2022-11-16T08:38:42.239Z,326.00
2022-11-16T08:39:42.243Z,338.00
2022-11-16T08:40:42.214Z,349.00
2022-11-16T08:41:42.241Z,355.00
2022-11-16T08:42:43.827Z,357.00
2022-11-16T08:43:42.190Z,354.00
2022-11-16T08:44:42.167Z,353.00
2022-11-16T08:45:42.156Z,353.00
2022-11-16T08:46:42.132Z,361.00
2022-11-16T08:47:42.133Z,356.00
2022-11-16T08:48:42.114Z,357.00
2022-11-16T08:49:46.700Z,359.00
2022-11-16T08:51:15.454Z,359.00
2022-11-16T08:51:42.080Z,354.00
2022-11-16T08:52:42.083Z,356.00
2022-11-16T08:53:42.055Z,359.00
2022-11-16T08:54:42.039Z,353.00
2022-11-16T08:55:42.039Z,356.00
2022-11-16T08:56:42.023Z,351.00
2022-11-16T08:57:42.028Z,340.00
2022-11-16T08:58:41.983Z,355.00
2022-11-16T08:59:41.988Z,358.00
2022-11-16T09:00:41.956Z,347.00
2022-11-16T09:01:42.008Z,334.00
2022-11-16T09:02:41.948Z,335.00
2022-11-16T09:03:41.949Z,339.00
2022-11-16T09:04:41.934Z,329.00
2022-11-16T09:05:41.909Z,336.00
2022-11-16T09:06:41.875Z,331.00
2022-11-16T09:07:41.861Z,330.00
2022-11-16T09:08:41.874Z,335.00
2022-11-16T09:09:42.052Z,344.00
2022-11-16T09:10:41.849Z,344.00
2022-11-16T09:11:41.814Z,339.00
2022-11-16T09:12:41.824Z,336.00
2022-11-16T09:13:41.786Z,335.00
2022-11-16T09:14:41.779Z,345.00
2022-11-16T09:15:41.798Z,340.00
2022-11-16T09:16:41.754Z,328.00
2022-11-16T09:17:41.755Z,326.00
2022-11-16T09:18:41.715Z,324.00
2022-11-16T09:19:41.709Z,325.00
2022-11-16T09:20:41.701Z,329.00
2022-11-16T09:21:41.711Z,330.00
2022-11-16T09:22:41.669Z,332.00
2022-11-16T09:23:41.673Z,336.00
2022-11-16T09:24:41.652Z,366.00
2022-11-16T09:25:41.653Z,358.00
2022-11-16T09:26:41.652Z,358.00
2022-11-16T09:27:41.627Z,352.00
2022-11-16T09:28:41.608Z,350.00
2022-11-16T09:29:41.578Z,355.00
2022-11-16T09:30:41.564Z,359.00
2022-11-16T09:31:41.571Z,357.00
2022-11-16T09:32:41.594Z,354.00
2022-11-16T09:33:41.539Z,345.00
2022-11-16T09:34:41.517Z,348.00
2022-11-16T09:35:41.499Z,360.00
2022-11-16T09:36:41.538Z,358.00
2022-11-16T09:37:41.523Z,351.00
2022-11-16T09:39:13.289Z,315.00
2022-11-16T09:39:41.482Z,314.00
2022-11-16T09:40:41.455Z,307.00
2022-11-16T09:41:41.447Z,314.00
2022-11-16T09:42:41.417Z,324.00
2022-11-16T09:43:45.772Z,327.00
2022-11-16T09:44:41.447Z,333.00
2022-11-16T09:45:41.421Z,340.00
2022-11-16T09:46:41.418Z,348.00
2022-11-16T09:47:41.386Z,361.00
2022-11-16T09:48:41.379Z,357.00
2022-11-16T09:49:41.389Z,354.00
2022-11-16T09:50:41.372Z,351.00
2022-11-16T09:51:41.416Z,349.00
2022-11-16T09:52:41.449Z,350.00
2022-11-16T09:53:41.339Z,351.00
2022-11-16T09:54:41.312Z,347.00
2022-11-16T09:55:41.457Z,340.00
2022-11-16T09:56:41.254Z,322.00
2022-11-16T09:57:41.362Z,317.00
2022-11-16T10:05:56.667Z,273.00
2022-11-16T10:06:57.709Z,268.00
2022-11-16T10:07:57.617Z,271.00
2022-11-16T10:08:57.626Z,268.00
2022-11-16T10:09:57.626Z,268.00
2022-11-16T10:10:57.618Z,266.00
2022-11-16T10:11:57.647Z,263.00
2022-11-16T10:12:57.610Z,269.00
2022-11-16T10:14:02.821Z,271.00
2022-11-16T10:14:57.592Z,277.00
2022-11-16T10:15:57.562Z,279.00
2022-11-16T10:16:57.557Z,283.00
2022-11-16T10:17:57.521Z,284.00
2022-11-16T10:18:57.488Z,298.00
2022-11-16T10:19:57.517Z,304.00
2022-11-16T10:20:57.476Z,309.00
2022-11-16T10:21:57.484Z,310.00
2022-11-16T10:22:57.639Z,301.00
2022-11-16T10:23:57.449Z,301.00
2022-11-16T10:24:57.403Z,297.00
2022-11-16T10:25:57.407Z,294.00
2022-11-16T10:26:57.408Z,289.00
2022-11-16T10:27:57.409Z,290.00
2022-11-16T10:28:57.435Z,292.00
2022-11-16T10:29:57.342Z,292.00
2022-11-16T10:30:57.353Z,288.00
2022-11-16T10:31:57.332Z,289.00
2022-11-16T10:32:57.302Z,292.00
2022-11-16T10:33:57.360Z,289.00
2022-11-16T10:34:57.268Z,299.00
2022-11-16T10:35:57.321Z,305.00
2022-11-16T10:36:57.231Z,312.00
2022-11-16T10:37:57.318Z,311.00
2022-11-16T10:38:57.223Z,312.00
2022-11-16T10:39:57.217Z,331.00
2022-11-16T10:40:57.196Z,327.00
2022-11-16T10:41:57.176Z,320.00
2022-11-16T10:42:57.176Z,320.00
2022-11-16T10:43:57.181Z,318.00
2022-11-16T10:44:57.143Z,324.00
2022-11-16T10:45:57.155Z,324.00
2022-11-16T10:46:57.130Z,331.00
2022-11-16T10:47:57.098Z,332.00
2022-11-16T10:48:57.106Z,331.00
2022-11-16T10:49:57.120Z,325.00
2022-11-16T10:50:57.309Z,327.00
2022-11-16T10:51:57.064Z,322.00
2022-11-16T10:52:57.054Z,336.00
2022-11-16T10:53:57.050Z,340.00
2022-11-16T10:54:57.050Z,347.00
2022-11-16T10:55:57.030Z,346.00
2022-11-16T10:56:56.995Z,344.00
2022-11-16T10:57:57.017Z,337.00
2022-11-16T10:58:56.990Z,332.00
2022-11-16T10:59:56.990Z,332.00
2022-11-16T11:00:56.965Z,297.00
2022-11-16T11:01:56.933Z,266.00
2022-11-16T11:02:56.926Z,280.00
2022-11-16T11:03:56.923Z,289.00
2022-11-16T11:04:56.919Z,291.00
2022-11-16T11:05:56.907Z,289.00
2022-11-16T11:06:56.970Z,296.00
2022-11-16T11:07:59.555Z,271.00
2022-11-16T11:08:56.873Z,275.00
2022-11-16T11:09:56.898Z,280.00
2022-11-16T11:10:56.807Z,279.00
2022-11-16T11:11:56.844Z,280.00
2022-11-16T11:12:56.810Z,274.00
2022-11-16T11:13:56.789Z,276.00
2022-11-16T11:14:56.788Z,294.00
2022-11-16T11:15:56.737Z,294.00
2022-11-16T11:16:56.782Z,294.00
2022-11-16T11:17:56.793Z,296.00
2022-11-16T11:18:56.736Z,286.00
2022-11-16T11:19:56.712Z,307.00
2022-11-16T11:20:56.706Z,318.00
2022-11-16T11:21:56.725Z,335.00
2022-11-16T11:22:56.670Z,343.00
2022-11-16T11:24:10.555Z,335.00
2022-11-16T11:24:56.630Z,340.00
2022-11-16T11:25:56.612Z,337.00
2022-11-16T11:26:56.591Z,342.00
2022-11-16T11:27:56.593Z,337.00
2022-11-16T11:28:56.565Z,341.00
2022-11-16T11:29:56.584Z,338.00
2022-11-16T11:30:56.530Z,341.00
2022-11-16T11:31:56.555Z,339.00
2022-11-16T11:32:56.525Z,346.00
2022-11-16T11:33:56.509Z,333.00
2022-11-16T11:34:56.492Z,333.00
2022-11-16T11:35:56.470Z,337.00
2022-11-16T11:36:56.476Z,321.00
2022-11-16T11:37:56.477Z,299.00
2022-11-16T11:38:56.523Z,286.00
2022-11-16T11:39:56.416Z,280.00
2022-11-16T11:40:56.405Z,281.00
2022-11-16T11:41:56.426Z,286.00
2022-11-16T11:42:56.460Z,285.00
2022-11-16T11:43:56.382Z,280.00
2022-11-16T11:44:56.376Z,289.00
2022-11-16T11:45:56.363Z,279.00
2022-11-16T11:47:42.509Z,278.00
2022-11-16T11:48:00.797Z,280.00
2022-11-16T11:48:56.327Z,293.00
2022-11-16T11:49:56.354Z,296.00
2022-11-16T11:50:56.285Z,296.00
2022-11-16T11:51:56.294Z,298.00
2022-11-16T11:52:56.297Z,297.00
2022-11-16T11:53:56.296Z,305.00
2022-11-16T11:54:56.334Z,316.00
2022-11-16T11:55:56.264Z,326.00
2022-11-16T11:56:56.241Z,337.00
2022-11-16T11:57:56.302Z,335.00
2022-11-16T11:58:56.278Z,335.00
2022-11-16T11:59:56.212Z,333.00
2022-11-16T12:00:56.158Z,339.00
2022-11-16T12:01:56.129Z,336.00
2022-11-16T12:02:56.142Z,328.00
2022-11-16T12:03:56.141Z,301.00
2022-11-16T12:04:56.104Z,305.00
2022-11-16T12:05:56.127Z,305.00
2022-11-16T12:06:56.131Z,304.00
2022-11-16T12:07:56.060Z,310.00
2022-11-16T12:08:56.185Z,301.00
2022-11-16T12:09:56.707Z,291.00
2022-11-16T12:10:56.028Z,280.00
2022-11-16T12:11:56.035Z,282.00
2022-11-16T12:12:56.029Z,290.00
2022-11-16T12:13:56.046Z,302.00
2022-11-16T12:14:55.977Z,296.00
2022-11-16T12:15:55.962Z,301.00
2022-11-16T12:16:55.970Z,309.00
2022-11-16T12:17:55.980Z,310.00
2022-11-16T12:18:55.942Z,304.00
2022-11-16T12:19:55.935Z,328.00
2022-11-16T12:20:55.895Z,328.00
2022-11-16T12:21:55.926Z,333.00
2022-11-16T12:23:01.036Z,331.00
2022-11-16T12:23:55.891Z,335.00
2022-11-16T12:24:55.843Z,346.00
2022-11-16T12:25:55.847Z,337.00
2022-11-16T12:26:55.821Z,338.00
2022-11-16T12:27:55.806Z,337.00
2022-11-16T12:28:55.795Z,335.00
2022-11-16T12:29:55.793Z,333.00
2022-11-16T12:30:55.744Z,352.00
2022-11-16T12:31:55.827Z,326.00
2022-11-16T12:32:55.741Z,332.00
2022-11-16T12:33:55.778Z,335.00
2022-11-16T12:34:55.690Z,334.00
2022-11-16T12:35:55.683Z,327.00
2022-11-16T12:36:55.667Z,319.00